Terminal Aerodrome Forecast
Issued by NWS

Home | Current Version | Previous Version | Graphics & Text | Print | Product List | Glossary On
Versions: 1 2 3 4 5 6 7 8 9 10 11 12 13 14
362
FTUS43 KBIS 020527
TAFJMS
TAF
KJMS 020527Z 0206/0306 23004KT P6SM SCT150
     FM021200 22004KT P6SM SCT070 BKN100
     FM021500 30005KT P6SM VCSH OVC050
     FM022100 15007KT P6SM SCT070
     FM030100 22004KT P6SM FEW050=

USA.gov is the U.S. government's official web portal to all federal, state and local government web resources and services.